Dededo, Guam
Current Conditions -  °F | °C
As of 3:54 AM on Tuesday 21 Oct 2014 (Local Time) from PGUM Reporting Station
Clear Clear  
Wind Chill: 26°   Ceiling: Unl
Heat Index: 27°   Visibility: 10mi
Dew Point: 24°   Wind: 5mph
Humidity: 90%   Direction: 50°NE
Pressure: 29.82"   Gusts: NA
Location:  13.51°N, 144.84°E
Report Text: PGUM 201754Z 05004KT 10SM CLR 26/24 A2982 RMK AO2 SLP091 60000 T02560239 10272 20256 56009
Loading
Personal Weather Stations






























Interactive Weather Map
Tropical Storm Tracking
New forecast layout! Learn more

10-Day Weather Forecast

Advertisements
Track Severe Weather on mobile